Time;durP1;ratioP1;P1;durP2;ratioP2;P2;SDS_P1;SDS_P2;PMS_P1;PMS_P2;Temp;Humidity;BMP_temperature;BMP_pressure;BME280_temperature;BME280_humidity;BME280_pressure;Samples;Min_cycle;Max_cycle;Signal;HPM_P1;HPM_P2
2021/10/19 00:00:35;;;;;;;4.45;3.10;;;;;;;27.84;20.55;99149.75;5071320;28;20028;-84
2021/10/19 00:03:01;;;;;;;5.25;3.42;;;;;;;28.05;20.23;99138.03;5072774;28;20097;-85
2021/10/19 00:05:27;;;;;;;4.50;3.17;;;;;;;28.02;20.02;99144.56;5074188;28;20097;-84
2021/10/19 00:07:54;;;;;;;6.30;3.13;;;;;;;27.66;20.40;99148.50;5062773;28;20466;-85
2021/10/19 00:10:20;;;;;;;3.42;2.38;;;;;;;27.66;20.87;99140.84;5070374;28;20037;-85
2021/10/19 00:12:47;;;;;;;5.93;3.65;;;;;;;27.64;20.69;99146.13;5051955;28;20119;-85
2021/10/19 00:15:14;;;;;;;5.75;3.25;;;;;;;27.80;20.40;99148.22;5070962;28;20098;-85
2021/10/19 00:17:43;;;;;;;6.80;3.70;;;;;;;28.02;20.16;99158.69;5069258;28;20055;-85
2021/10/19 00:20:11;;;;;;;5.05;3.15;;;;;;;28.10;20.15;99144.44;5060558;28;20036;-85
2021/10/19 00:22:38;;;;;;;6.20;3.50;;;;;;;28.17;20.19;99152.75;5067813;28;20111;-84
2021/10/19 00:25:05;;;;;;;5.20;3.13;;;;;;;28.12;20.36;99154.06;5063311;28;20524;-84
2021/10/19 00:27:33;;;;;;;5.90;3.33;;;;;;;28.12;20.45;99156.88;5050220;28;20028;-84
2021/10/19 00:30:00;;;;;;;3.40;2.60;;;;;;;27.99;20.64;99159.56;5063389;28;20225;-84
2021/10/19 00:32:26;;;;;;;4.25;3.40;;;;;;;27.98;20.56;99152.28;5065205;28;20098;-84
2021/10/19 00:34:53;;;;;;;4.72;3.20;;;;;;;28.00;20.62;99154.72;5071389;28;20025;-84
2021/10/19 00:37:19;;;;;;;5.07;2.97;;;;;;;27.97;20.56;99149.91;5067040;28;20028;-84
2021/10/19 00:39:45;;;;;;;5.25;3.05;;;;;;;27.57;20.95;99154.72;5066127;28;20582;-82
2021/10/19 00:42:11;;;;;;;4.78;2.50;;;;;;;27.68;20.94;99154.53;5067623;28;20027;-82
2021/10/19 00:44:37;;;;;;;4.65;2.70;;;;;;;27.89;20.75;99151.28;5050463;28;20025;-82
2021/10/19 00:47:03;;;;;;;4.80;3.58;;;;;;;28.02;20.44;99155.88;5070533;28;20040;-83
2021/10/19 00:49:30;;;;;;;4.32;3.22;;;;;;;28.04;20.38;99159.06;5070985;28;20099;-84
2021/10/19 00:51:57;;;;;;;4.32;3.08;;;;;;;28.03;20.36;99159.47;5069812;28;20567;-84
2021/10/19 00:54:24;;;;;;;5.53;3.92;;;;;;;28.15;20.35;99149.53;5075496;28;23259;-83
2021/10/19 00:56:53;;;;;;;5.05;3.35;;;;;;;28.28;20.38;99156.94;5070811;28;20032;-83
2021/10/19 00:59:20;;;;;;;7.43;3.70;;;;;;;28.31;20.31;99146.78;5076381;28;20040;-83
2021/10/19 01:01:46;;;;;;;5.03;3.95;;;;;;;28.39;20.16;99151.84;5073518;28;20029;-83
2021/10/19 01:04:12;;;;;;;5.60;3.50;;;;;;;28.48;19.90;99152.03;5055985;28;20031;-83
2021/10/19 01:06:39;;;;;;;4.50;3.15;;;;;;;28.52;20.14;99155.56;5069549;28;20024;-83
2021/10/19 01:09:06;;;;;;;4.88;3.35;;;;;;;28.42;20.06;99161.47;5072516;28;20040;-83
2021/10/19 01:11:33;;;;;;;4.72;2.90;;;;;;;28.16;20.21;99157.59;5073653;28;20040;-83
2021/10/19 01:13:59;;;;;;;4.03;3.25;;;;;;;27.89;20.59;99162.59;5069572;28;20044;-83
2021/10/19 01:16:25;;;;;;;3.33;2.38;;;;;;;27.83;20.74;99155.84;5070104;28;20032;-83
2021/10/19 01:18:51;;;;;;;5.22;2.83;;;;;;;28.10;20.33;99144.44;5073306;28;20063;-83
2021/10/19 01:21:17;;;;;;;3.53;2.80;;;;;;;28.26;19.96;99133.97;5067381;28;20079;-83
2021/10/19 01:23:43;;;;;;;6.75;2.63;;;;;;;28.32;20.20;99137.06;5070969;28;20032;-83
2021/10/19 01:26:10;;;;;;;4.30;3.20;;;;;;;28.27;20.18;99129.09;5071268;28;20167;-83
2021/10/19 01:28:40;;;;;;;4.55;2.80;;;;;;;28.32;20.26;99129.38;5076228;28;20416;-83
2021/10/19 01:31:07;;;;;;;5.07;3.25;;;;;;;28.42;20.16;99133.22;5073694;28;20041;-83
2021/10/19 01:33:34;;;;;;;4.40;2.63;;;;;;;28.16;20.76;99137.81;5071844;28;20028;-83
2021/10/19 01:36:00;;;;;;;4.32;2.58;;;;;;;27.98;20.72;99134.56;5069518;28;20044;-83
2021/10/19 01:38:29;;;;;;;3.88;3.03;;;;;;;28.16;20.48;99131.38;5064470;28;20025;-83
2021/10/19 01:40:56;;;;;;;2.78;2.33;;;;;;;27.89;20.79;99131.53;5064031;28;20104;-83
2021/10/19 01:43:25;;;;;;;6.38;4.32;;;;;;;28.10;20.54;99121.84;5050303;28;20024;-83
2021/10/19 01:45:56;;;;;;;4.30;2.88;;;;;;;28.08;20.27;99131.53;5075482;28;20028;-83
2021/10/19 01:48:23;;;;;;;;;;;;;;;28.08;20.30;99124.31;5069091;28;20044;-83
2021/10/19 01:50:49;;;;;;;6.93;3.50;;;;;;;28.13;20.05;99124.56;5065584;28;19928;-83
2021/10/19 01:53:16;;;;;;;4.80;3.08;;;;;;;28.19;19.87;99110.75;5071755;28;20032;-84
2021/10/19 01:55:42;;;;;;;5.63;3.65;;;;;;;28.18;20.12;99120.44;5075964;28;20028;-84
2021/10/19 01:58:10;;;;;;;4.93;2.88;;;;;;;28.31;19.77;99118.53;5066984;28;20099;-83
2021/10/19 02:00:38;;;;;;;3.75;2.60;;;;;;;28.26;19.74;99113.41;5067643;28;20039;-83
2021/10/19 02:03:08;;;;;;;4.05;2.88;;;;;;;27.92;20.24;99119.34;5077989;28;20539;-84
2021/10/19 02:05:35;;;;;;;5.47;3.63;;;;;;;27.80;20.52;99122.81;5058146;28;20103;-83
2021/10/19 02:08:03;;;;;;;3.75;2.03;;;;;;;27.85;20.39;99125.94;5047795;28;20435;-83
2021/10/19 02:10:30;;;;;;;5.07;2.97;;;;;;;27.92;20.16;99117.31;5070733;28;20068;-83
2021/10/19 02:12:56;;;;;;;3.45;2.58;;;;;;;27.83;20.22;99121.97;5065857;28;20486;-83
2021/10/19 02:15:27;;;;;;;3.67;2.38;;;;;;;27.55;20.72;99109.22;5066119;28;20033;-84
2021/10/19 02:17:54;;;;;;;3.22;2.13;;;;;;;27.57;20.64;99108.78;5068389;28;20163;-84
2021/10/19 02:20:21;;;;;;;4.45;2.45;;;;;;;27.31;20.64;99102.00;5067167;28;20037;-83
2021/10/19 02:22:48;;;;;;;4.38;2.38;;;;;;;27.04;21.14;99098.50;5062327;28;20091;-84
2021/10/19 02:25:14;;;;;;;3.92;2.78;;;;;;;27.18;21.10;99101.03;5060767;28;20429;-84
2021/10/19 02:27:40;;;;;;;5.05;2.53;;;;;;;27.30;20.67;99101.22;5062637;28;20032;-84
2021/10/19 02:30:08;;;;;;;4.25;2.40;;;;;;;27.12;20.58;99103.56;5063464;28;20037;-84
2021/10/19 02:32:39;;;;;;;3.97;2.75;;;;;;;27.08;20.76;99104.84;5062919;28;20477;-83
2021/10/19 02:35:11;;;;;;;3.85;2.72;;;;;;;27.18;20.46;99095.41;5071283;28;20075;-83
2021/10/19 02:37:38;;;;;;;4.50;3.08;;;;;;;27.27;20.48;99102.09;5063215;28;20392;-83
2021/10/19 02:40:05;;;;;;;3.03;2.03;;;;;;;27.27;20.14;99096.44;5062830;28;20051;-83
2021/10/19 02:42:31;;;;;;;2.80;2.10;;;;;;;27.21;19.92;99105.84;5063017;28;20037;-83
2021/10/19 02:44:59;;;;;;;5.45;3.00;;;;;;;27.10;20.11;99105.22;5067736;28;20145;-83
2021/10/19 02:47:25;;;;;;;3.53;2.35;;;;;;;27.10;20.19;99099.56;5076434;28;20062;-83
2021/10/19 02:49:52;;;;;;;3.60;2.30;;;;;;;27.24;20.21;99096.50;5056842;28;20405;-84
2021/10/19 02:52:18;;;;;;;3.80;2.55;;;;;;;27.28;20.06;99097.25;5070028;28;20482;-84
2021/10/19 02:54:44;;;;;;;4.30;2.63;;;;;;;27.39;19.89;99100.69;5066601;28;20021;-83
2021/10/19 02:57:11;;;;;;;5.70;2.78;;;;;;;27.08;20.04;99099.22;5067188;28;20040;-83
2021/10/19 02:59:37;;;;;;;4.82;2.70;;;;;;;27.00;20.24;99103.41;5062183;28;20116;-83
2021/10/19 03:02:03;;;;;;;6.63;2.80;;;;;;;27.13;20.31;99104.34;5068814;28;20028;-83
2021/10/19 03:04:29;;;;;;;4.45;2.40;;;;;;;27.14;19.97;99100.31;5072850;28;20162;-83
2021/10/19 03:06:55;;;;;;;5.20;2.88;;;;;;;27.05;20.26;99102.91;5067815;28;20508;-83
2021/10/19 03:09:21;;;;;;;3.53;2.30;;;;;;;27.05;20.03;99105.72;5067885;28;20158;-83
2021/10/19 03:11:47;;;;;;;2.35;2.10;;;;;;;26.94;20.06;99103.09;5068244;28;20028;-84
2021/10/19 03:14:13;;;;;;;2.90;1.90;;;;;;;26.92;20.07;99099.91;5064698;28;20060;-83
2021/10/19 03:16:39;;;;;;;3.50;2.45;;;;;;;26.95;20.31;99104.69;5068099;28;20043;-84
2021/10/19 03:19:05;;;;;;;3.78;2.35;;;;;;;26.80;20.17;99103.31;5072590;28;20102;-84
2021/10/19 03:21:31;;;;;;;3.00;2.15;;;;;;;26.92;19.86;99096.28;5071898;28;20036;-83
2021/10/19 03:23:57;;;;;;;3.58;2.53;;;;;;;26.96;20.07;99103.44;5049605;28;20025;-83
2021/10/19 03:26:23;;;;;;;2.80;2.13;;;;;;;27.02;19.86;99095.31;5056395;28;20033;-83
2021/10/19 03:28:50;;;;;;;3.10;2.05;;;;;;;26.99;19.73;99094.13;5070678;28;20036;-83
2021/10/19 03:31:16;;;;;;;2.85;1.73;;;;;;;26.79;19.83;99100.94;5061007;28;20024;-83
2021/10/19 03:33:43;;;;;;;2.17;1.88;;;;;;;26.83;19.90;99096.84;5069805;28;20039;-83
2021/10/19 03:36:10;;;;;;;3.83;2.42;;;;;;;26.63;20.73;99102.34;5068995;28;20103;-84
2021/10/19 03:38:37;;;;;;;2.95;2.13;;;;;;;26.38;20.84;99093.50;5064381;28;20473;-84
2021/10/19 03:41:04;;;;;;;4.80;2.90;;;;;;;26.16;21.08;99095.06;5069082;28;20533;-84
2021/10/19 03:43:31;;;;;;;5.15;2.33;;;;;;;26.28;20.77;99088.81;5056549;28;20111;-84
2021/10/19 03:45:57;;;;;;;4.05;2.90;;;;;;;26.56;20.82;99094.03;5062957;28;20059;-83
2021/10/19 03:48:24;;;;;;;4.97;2.90;;;;;;;26.84;19.79;99086.38;5070874;28;20489;-83
2021/10/19 03:50:50;;;;;;;5.03;3.10;;;;;;;26.95;19.99;99090.59;5065053;28;20032;-83
2021/10/19 03:53:16;;;;;;;4.32;2.38;;;;;;;26.91;19.76;99091.88;5069715;28;20485;-83
2021/10/19 03:55:47;;;;;;;4.03;2.83;;;;;;;27.02;19.76;99089.66;5064529;28;20021;-83
2021/10/19 03:58:14;;;;;;;4.78;2.35;;;;;;;27.00;19.64;99078.03;5059948;28;20029;-83
2021/10/19 04:00:40;;;;;;;4.05;2.45;;;;;;;26.94;19.43;99082.56;5070007;28;20513;-83
2021/10/19 04:03:06;;;;;;;2.67;2.13;;;;;;;26.81;19.70;99079.56;5048168;28;20543;-83
2021/10/19 04:05:32;;;;;;;3.25;2.40;;;;;;;26.61;19.99;99073.00;5061464;28;20025;-83
2021/10/19 04:07:58;;;;;;;3.58;2.15;;;;;;;26.59;19.96;99072.66;5068348;28;20397;-83
2021/10/19 04:10:24;;;;;;;3.53;2.35;;;;;;;26.53;20.22;99083.63;5047264;28;20498;-83
2021/10/19 04:12:50;;;;;;;5.38;3.28;;;;;;;26.37;20.65;99072.19;5068708;28;20085;-83
2021/10/19 04:15:17;;;;;;;3.88;2.53;;;;;;;26.11;20.90;99077.84;5067268;28;20480;-84
2021/10/19 04:17:43;;;;;;;4.53;2.47;;;;;;;26.34;20.66;99078.69;5070777;28;20036;-83
2021/10/19 04:20:10;;;;;;;4.55;2.80;;;;;;;26.52;20.34;99078.41;5069354;28;20101;-82
2021/10/19 04:22:36;;;;;;;5.30;2.78;;;;;;;26.71;20.16;99080.50;5068634;28;20036;-83
2021/10/19 04:25:02;;;;;;;4.85;2.55;;;;;;;26.54;20.37;99084.41;5061985;28;20028;-83
2021/10/19 04:27:28;;;;;;;3.88;2.40;;;;;;;26.38;20.51;99082.25;5067737;28;20037;-82
2021/10/19 04:29:55;;;;;;;3.80;2.67;;;;;;;26.31;20.62;99084.38;5065420;28;20037;-82
2021/10/19 04:32:21;;;;;;;4.45;2.45;;;;;;;26.16;20.47;99083.00;5067938;28;20040;-82
2021/10/19 04:34:47;;;;;;;3.22;2.92;;;;;;;26.12;20.73;99083.03;5072052;28;20043;-82
2021/10/19 04:37:13;;;;;;;4.72;3.15;;;;;;;26.19;20.65;99077.28;5064725;28;20032;-82
2021/10/19 04:39:39;;;;;;;2.70;2.20;;;;;;;26.16;20.26;99071.72;5071971;28;20048;-81
2021/10/19 04:42:05;;;;;;;6.80;2.75;;;;;;;26.18;20.70;99072.91;5065389;28;20576;-81
2021/10/19 04:44:31;;;;;;;3.47;2.38;;;;;;;25.99;20.79;99068.72;5071250;28;20397;-82
2021/10/19 04:46:58;;;;;;;4.43;2.40;;;;;;;25.70;21.55;99084.38;5066533;28;20099;-83
2021/10/19 04:49:24;;;;;;;3.85;2.05;;;;;;;25.75;21.67;99075.47;5068706;28;20517;-83
2021/10/19 04:51:50;;;;;;;3.60;2.22;;;;;;;25.61;21.75;99072.03;5069759;28;20055;-83
2021/10/19 04:54:16;;;;;;;3.97;2.28;;;;;;;25.87;21.56;99080.53;5066793;28;20033;-83
2021/10/19 04:56:42;;;;;;;4.10;2.30;;;;;;;26.05;21.09;99072.66;5067226;28;20463;-83
2021/10/19 04:59:08;;;;;;;3.25;2.08;;;;;;;26.13;21.49;99067.75;5068846;28;20476;-83
2021/10/19 05:01:34;;;;;;;5.05;2.05;;;;;;;26.01;21.39;99066.28;5069388;28;20041;-82
2021/10/19 05:04:00;;;;;;;2.90;2.20;;;;;;;26.15;21.32;99070.13;5069934;28;20060;-82
2021/10/19 05:06:26;;;;;;;4.57;2.83;;;;;;;26.38;20.97;99065.34;5070218;28;20033;-82
2021/10/19 05:08:52;;;;;;;4.55;2.05;;;;;;;26.51;21.14;99071.97;5055720;28;20127;-82
2021/10/19 05:11:18;;;;;;;2.83;2.45;;;;;;;26.61;20.69;99071.00;5063947;28;20033;-82
2021/10/19 05:13:44;;;;;;;6.22;2.72;;;;;;;26.50;20.91;99081.66;5061303;28;20398;-82
2021/10/19 05:16:10;;;;;;;2.15;1.70;;;;;;;26.43;20.94;99076.13;5080946;28;20044;-81
2021/10/19 05:18:36;;;;;;;2.75;2.40;;;;;;;26.52;20.87;99084.84;5071328;28;20111;-82
2021/10/19 05:21:05;;;;;;;3.88;3.05;;;;;;;26.59;21.00;99084.72;5069486;28;20090;-81
2021/10/19 05:23:32;;;;;;;5.18;2.38;;;;;;;26.33;21.31;99082.72;5069802;28;20047;-80
2021/10/19 05:25:58;;;;;;;3.72;2.42;;;;;;;26.24;21.39;99085.28;5070005;28;20090;-81
2021/10/19 05:28:24;;;;;;;3.30;2.40;;;;;;;26.27;21.49;99084.44;5068368;28;20028;-82
2021/10/19 05:30:50;;;;;;;4.32;2.75;;;;;;;26.46;21.21;99086.56;5060543;28;20092;-82
2021/10/19 05:33:16;;;;;;;3.78;2.78;;;;;;;26.34;21.20;99089.16;5084967;28;20036;-82
2021/10/19 05:35:42;;;;;;;2.42;1.92;;;;;;;26.48;20.91;99092.56;5055810;28;20025;-82
2021/10/19 05:38:08;;;;;;;3.47;2.53;;;;;;;26.44;21.11;99097.44;5077484;28;20037;-82
2021/10/19 05:40:35;;;;;;;2.97;1.88;;;;;;;25.99;21.99;99087.63;5053053;28;20037;-82
2021/10/19 05:43:01;;;;;;;5.32;2.42;;;;;;;25.86;21.93;99095.00;5069358;28;20107;-82
2021/10/19 05:45:27;;;;;;;3.13;2.20;;;;;;;25.91;21.68;99103.78;5080231;28;20116;-82
2021/10/19 05:47:53;;;;;;;3.30;2.35;;;;;;;26.30;21.50;99096.88;5079498;28;20570;-82
2021/10/19 05:50:19;;;;;;;4.13;2.83;;;;;;;26.49;21.63;99108.22;5088981;28;20490;-82
2021/10/19 05:52:45;;;;;;;3.33;2.53;;;;;;;26.52;21.69;99106.56;5069247;28;20029;-82
2021/10/19 05:55:12;;;;;;;4.50;2.42;;;;;;;26.81;21.72;99118.22;5072671;28;20040;-82
2021/10/19 05:57:38;;;;;;;2.53;2.20;;;;;;;26.89;21.65;99111.22;5083861;28;20477;-82
2021/10/19 06:00:06;;;;;;;3.50;2.65;;;;;;;27.05;21.28;99114.19;5092060;28;20028;-82
2021/10/19 06:02:32;;;;;;;4.43;2.40;;;;;;;27.29;21.28;99107.28;5082412;28;20038;-82
2021/10/19 06:04:58;;;;;;;114.85;47.80;;;;;;;27.50;21.04;99121.00;5069872;28;20037;-82
2021/10/19 06:07:24;;;;;;;10.55;5.35;;;;;;;27.48;21.00;99117.03;5075510;28;20032;-82
2021/10/19 06:09:50;;;;;;;7.43;4.25;;;;;;;27.56;21.07;99118.50;5079767;28;20112;-82
2021/10/19 06:12:17;;;;;;;7.93;4.20;;;;;;;27.81;20.75;99122.41;5074461;28;20082;-82
2021/10/19 06:14:43;;;;;;;7.07;4.43;;;;;;;27.75;20.86;99135.41;5088849;28;20042;-82
2021/10/19 06:17:10;;;;;;;5.93;3.35;;;;;;;27.79;21.20;99133.34;5084370;28;20427;-82
2021/10/19 06:19:36;;;;;;;6.35;2.95;;;;;;;28.07;20.62;99134.78;5085313;28;20132;-82
2021/10/19 06:22:03;;;;;;;7.05;3.33;;;;;;;28.06;20.80;99134.00;5073285;28;20041;-82
2021/10/19 06:24:29;;;;;;;6.63;3.72;;;;;;;28.16;20.95;99143.47;5072804;28;20029;-82
2021/10/19 06:26:55;;;;;;;5.40;3.17;;;;;;;28.36;20.89;99138.56;5086491;28;20032;-82
2021/10/19 06:29:21;;;;;;;2.65;2.10;;;;;;;28.41;20.56;99134.44;5071602;28;20128;-82
2021/10/19 06:31:47;;;;;;;4.75;2.95;;;;;;;28.64;20.70;99137.16;5073524;28;20074;-82
2021/10/19 06:34:14;;;;;;;6.18;3.17;;;;;;;28.87;20.25;99139.03;5063055;28;20074;-82
2021/10/19 06:36:40;;;;;;;6.97;3.05;;;;;;;28.65;21.21;99138.75;5073709;28;20020;-82
2021/10/19 06:39:07;;;;;;;4.40;2.72;;;;;;;28.46;20.88;99139.56;5054194;28;20025;-82
2021/10/19 06:41:33;;;;;;;5.15;2.78;;;;;;;28.54;21.00;99135.34;5062268;28;20035;-82
2021/10/19 06:44:00;;;;;;;5.07;3.45;;;;;;;28.61;21.23;99127.50;5080069;28;20036;-82
2021/10/19 06:46:27;;;;;;;5.22;3.75;;;;;;;28.29;22.55;99123.81;5083216;28;20059;-82
2021/10/19 06:48:53;;;;;;;5.35;2.60;;;;;;;28.44;21.92;99125.88;5086929;28;20553;-82
2021/10/19 06:51:19;;;;;;;4.25;2.72;;;;;;;28.87;21.40;99122.84;5071315;28;20045;-82
2021/10/19 06:53:45;;;;;;;3.72;2.42;;;;;;;29.01;21.14;99130.19;5065893;28;20389;-82
2021/10/19 06:56:11;;;;;;;4.32;3.15;;;;;;;28.93;21.35;99117.47;5077771;28;20171;-82
2021/10/19 06:58:37;;;;;;;5.43;3.08;;;;;;;29.28;20.94;99125.84;5084068;28;20036;-82
2021/10/19 07:01:05;;;;;;;3.67;2.65;;;;;;;29.12;21.54;99122.22;5062799;28;20040;-82
2021/10/19 07:03:32;;;;;;;3.38;2.45;;;;;;;29.15;21.61;99127.78;5078962;28;20032;-82
2021/10/19 07:06:05;;;;;;;4.10;2.90;;;;;;;29.34;21.35;99120.44;5074955;28;20028;-82
2021/10/19 07:08:33;;;;;;;4.45;2.83;;;;;;;28.84;22.38;99128.59;5072826;28;20041;-82
2021/10/19 07:10:59;;;;;;;2.88;2.20;;;;;;;28.71;22.29;99129.28;5060454;28;20036;-82
2021/10/19 07:13:26;;;;;;;2.97;2.08;;;;;;;28.97;22.27;99127.44;5080503;28;20493;-82
2021/10/19 07:15:54;;;;;;;2.97;2.00;;;;;;;29.36;21.30;99115.94;5060164;28;20047;-82
2021/10/19 07:18:21;;;;;;;3.00;2.00;;;;;;;29.37;21.50;99120.34;5073866;28;20058;-82
2021/10/19 07:20:48;;;;;;;1.67;1.58;;;;;;;29.58;21.39;99123.81;5072725;28;20035;-82
2021/10/19 07:23:15;;;;;;;2.50;1.85;;;;;;;29.83;20.96;99121.91;5069934;28;20404;-82
2021/10/19 07:25:41;;;;;;;3.28;1.67;;;;;;;29.53;21.41;99113.84;5072847;28;20499;-82
2021/10/19 07:28:07;;;;;;;3.45;1.95;;;;;;;29.62;20.51;99116.03;5062446;28;20542;-82
2021/10/19 07:30:33;;;;;;;3.15;1.98;;;;;;;29.15;21.21;99115.69;5077082;28;20036;-82
2021/10/19 07:32:59;;;;;;;2.08;1.30;;;;;;;29.56;21.17;99118.63;5075048;28;20032;-82
2021/10/19 07:35:25;;;;;;;1.75;1.52;;;;;;;29.42;21.05;99110.53;5070573;28;20120;-82
2021/10/19 07:37:51;;;;;;;4.05;2.15;;;;;;;28.97;22.12;99107.66;5062239;28;20028;-82
2021/10/19 07:40:19;;;;;;;3.25;1.85;;;;;;;29.10;22.37;99110.56;5036700;28;20111;-82
2021/10/19 07:42:46;;;;;;;3.28;2.28;;;;;;;28.39;22.95;99105.81;5056247;28;20032;-82
2021/10/19 07:45:13;;;;;;;2.03;1.60;;;;;;;28.83;22.89;99108.00;5074997;28;20020;-82
2021/10/19 07:47:44;;;;;;;1.90;1.55;;;;;;;28.85;22.24;99105.53;5069016;28;20382;-82
2021/10/19 07:50:14;;;;;;;1.33;1.20;;;;;;;29.45;22.06;99103.19;5083336;28;20457;-83
2021/10/19 07:52:42;;;;;;;1.83;1.30;;;;;;;30.05;20.60;99099.44;5073077;28;20537;-82
2021/10/19 07:55:09;;;;;;;3.10;1.40;;;;;;;29.89;21.29;99100.31;5081149;28;20042;-83
2021/10/19 07:57:47;;;;;;;1.63;1.20;;;;;;;30.21;21.35;99096.50;5056827;28;20103;-83
2021/10/19 08:00:22;;;;;;;3.00;1.23;;;;;;;30.51;20.16;99093.13;5068636;28;20036;-82
2021/10/19 08:02:48;;;;;;;2.63;1.77;;;;;;;30.13;21.17;99100.78;5070825;28;20376;-83
2021/10/19 08:05:15;;;;;;;3.00;1.80;;;;;;;29.21;21.76;99097.75;5082652;28;20033;-83
2021/10/19 08:07:43;;;;;;;2.97;1.90;;;;;;;28.71;22.64;99094.56;5081728;28;20389;-83
2021/10/19 08:10:11;;;;;;;2.30;1.77;;;;;;;28.23;23.63;99094.50;5091186;28;20089;-82
2021/10/19 08:12:37;;;;;;;1.83;1.50;;;;;;;28.26;23.35;99100.09;5070904;28;20503;-82
2021/10/19 08:15:07;;;;;;;3.13;1.33;;;;;;;28.91;23.90;99095.28;5082613;28;20029;-82
2021/10/19 08:17:33;;;;;;;1.27;1.17;;;;;;;29.90;22.18;99096.22;5088643;28;20030;-83
2021/10/19 08:20:00;;;;;;;1.55;1.13;;;;;;;30.42;21.38;99084.53;5086361;28;20044;-82
2021/10/19 08:22:31;;;;;;;1.95;0.90;;;;;;;30.93;21.42;99095.84;5072949;28;20515;-82
2021/10/19 08:24:58;;;;;;;1.05;0.93;;;;;;;31.46;20.69;99088.34;5074641;28;20068;-82
2021/10/19 08:27:25;;;;;;;2.13;1.45;;;;;;;31.44;19.80;99091.63;5065395;28;20029;-82
2021/10/19 08:29:52;;;;;;;1.65;1.15;;;;;;;31.34;20.75;99090.72;5074597;28;20397;-83
2021/10/19 08:32:19;;;;;;;1.33;0.90;;;;;;;31.34;20.96;99082.19;5079214;28;20527;-82
2021/10/19 08:34:45;;;;;;;1.50;1.00;;;;;;;31.46;20.62;99082.66;5056782;28;20071;-83
2021/10/19 08:37:12;;;;;;;1.02;0.90;;;;;;;31.69;19.91;99090.72;5063847;28;20028;-82
2021/10/19 08:39:38;;;;;;;1.00;0.82;;;;;;;31.74;19.89;99099.44;5063983;28;20428;-83
2021/10/19 08:42:04;;;;;;;0.90;0.80;;;;;;;31.76;19.44;99096.13;5075036;28;20037;-83
2021/10/19 08:44:30;;;;;;;1.15;0.73;;;;;;;31.85;19.82;99093.34;5084798;28;20043;-83
2021/10/19 08:46:57;;;;;;;1.67;0.95;;;;;;;32.06;19.58;99099.06;5080751;28;20035;-83
2021/10/19 08:49:23;;;;;;;1.10;0.80;;;;;;;32.11;19.26;99103.34;5093499;28;20044;-83
2021/10/19 08:51:49;;;;;;;1.33;0.90;;;;;;;32.10;19.60;99104.59;5077312;28;20062;-83
2021/10/19 08:54:16;;;;;;;1.30;0.80;;;;;;;31.60;19.73;99104.84;5074587;28;20037;-83
2021/10/19 08:56:43;;;;;;;1.70;0.70;;;;;;;31.50;20.14;99100.34;5068619;28;20016;-83
2021/10/19 08:59:11;;;;;;;1.02;0.73;;;;;;;31.89;19.48;99105.38;5083117;28;20032;-83
2021/10/19 09:01:39;;;;;;;1.08;0.70;;;;;;;32.09;19.65;99097.34;5073475;28;20036;-83
2021/10/19 09:04:12;;;;;;;0.55;0.55;;;;;;;32.02;19.49;99089.84;5065129;28;20076;-83
2021/10/19 09:06:41;;;;;;;1.33;0.70;;;;;;;32.00;19.55;99091.56;5073504;28;20074;-83
2021/10/19 09:09:08;;;;;;;1.27;0.60;;;;;;;32.21;19.22;99093.59;5086062;28;20032;-83
2021/10/19 09:11:46;;;;;;;0.65;0.60;;;;;;;32.26;19.28;99080.81;5086659;28;20413;-83
2021/10/19 09:14:14;;;;;;;0.95;0.57;;;;;;;31.82;19.33;99080.88;5095081;28;20028;-83
2021/10/19 09:16:46;;;;;;;0.55;0.40;;;;;;;32.03;19.62;99084.97;5076656;28;20028;-83
2021/10/19 09:19:15;;;;;;;0.63;0.60;;;;;;;31.89;20.06;99085.50;5082735;28;20049;-83
2021/10/19 09:21:52;;;;;;;0.50;0.50;;;;;;;31.83;19.57;99093.84;5064371;28;20111;-82
2021/10/19 09:24:22;;;;;;;0.90;0.50;;;;;;;31.96;19.76;99088.06;5061468;28;20032;-83
2021/10/19 09:26:50;;;;;;;;;;;;;;;31.74;18.76;99073.88;5074966;28;20441;-83
2021/10/19 09:29:16;;;;;;;0.93;0.40;;;;;;;31.07;19.56;99081.16;5072453;28;19916;-83
2021/10/19 09:31:42;;;;;;;0.80;0.55;;;;;;;30.94;19.64;99075.53;5070940;28;20405;-83
2021/10/19 09:34:14;;;;;;;0.43;0.43;;;;;;;31.50;19.88;99075.59;5076984;28;20456;-83
2021/10/19 09:36:40;;;;;;;0.57;0.47;;;;;;;31.73;19.02;99082.84;5069138;28;20501;-83
2021/10/19 09:39:07;;;;;;;0.30;0.30;;;;;;;31.33;19.22;99083.47;5076865;28;20032;-83
2021/10/19 09:41:44;;;;;;;0.60;0.50;;;;;;;31.35;20.21;99089.47;5063757;28;20028;-83
2021/10/19 09:44:16;;;;;;;0.82;0.30;;;;;;;31.90;19.38;99089.94;5084783;28;20028;-83
2021/10/19 09:46:42;;;;;;;0.40;0.30;;;;;;;32.24;18.51;99081.28;5083261;28;20028;-84
2021/10/19 09:49:14;;;;;;;0.20;0.20;;;;;;;32.50;19.07;99073.38;5068295;28;20047;-83
2021/10/19 09:51:40;;;;;;;0.40;0.35;;;;;;;32.58;18.83;99069.78;5072705;28;20036;-83
2021/10/19 09:54:11;;;;;;;0.25;0.25;;;;;;;33.00;19.02;99067.19;5068729;28;20119;-83
2021/10/19 09:56:39;;;;;;;0.95;0.30;;;;;;;32.82;17.44;99064.31;5063307;28;20097;-83
2021/10/19 09:59:06;;;;;;;0.30;0.30;;;;;;;33.27;18.25;99063.63;5073654;28;20043;-83
2021/10/19 10:01:34;;;;;;;0.50;0.30;;;;;;;33.22;18.35;99067.88;5068534;28;20029;-83
2021/10/19 10:04:02;;;;;;;0.90;0.40;;;;;;;33.29;17.25;99058.22;5079228;28;20033;-83
2021/10/19 10:06:30;;;;;;;0.50;0.32;;;;;;;33.46;18.54;99065.19;5065503;28;20032;-83
2021/10/19 10:08:58;;;;;;;0.40;0.40;;;;;;;33.58;17.39;99055.72;5092312;28;20119;-83
2021/10/19 10:11:24;;;;;;;1.17;0.13;;;;;;;33.72;18.24;99054.28;5054244;28;20063;-83
2021/10/19 10:14:02;;;;;;;0.75;0.28;;;;;;;33.22;17.89;99047.16;5084540;28;20024;-83
2021/10/19 10:16:29;;;;;;;0.20;0.20;;;;;;;33.60;18.13;99041.00;5071479;28;20036;-83
2021/10/19 10:18:56;;;;;;;0.28;0.28;;;;;;;33.61;16.79;99042.59;5089432;28;20447;-83
2021/10/19 10:21:24;;;;;;;0.20;0.20;;;;;;;33.81;17.76;99037.97;5091079;28;20040;-83
2021/10/19 10:24:02;;;;;;;0.20;0.20;;;;;;;34.23;16.46;99031.53;5087504;28;20487;-83
2021/10/19 10:26:31;;;;;;;0.50;0.38;;;;;;;33.05;18.04;99035.28;5066272;28;20164;-83
2021/10/19 10:29:35;;;;;;;0.50;0.30;;;;;;;33.55;18.01;99028.19;5072601;28;20045;-83
2021/10/19 10:32:01;;;;;;;0.40;0.30;;;;;;;33.72;18.01;99023.75;5059125;28;20040;-83
2021/10/19 10:34:32;;;;;;;0.52;0.22;;;;;;;33.99;18.09;99015.13;5085579;28;20033;-84
2021/10/19 10:37:12;;;;;;;0.30;0.22;;;;;;;34.21;17.08;99020.59;5062337;28;20043;-83
2021/10/19 10:39:45;;;;;;;0.20;0.20;;;;;;;34.32;17.64;99018.03;5076197;28;20035;-84
2021/10/19 10:42:11;;;;;;;0.32;0.32;;;;;;;33.86;17.07;99013.72;5078768;28;20032;-84
2021/10/19 10:44:40;;;;;;;0.30;0.30;;;;;;;33.31;17.65;99013.78;5084724;28;20060;-84
2021/10/19 10:47:09;;;;;;;0.30;0.30;;;;;;;32.68;19.13;99013.72;5072064;28;20107;-84
2021/10/19 10:49:36;;;;;;;0.30;0.20;;;;;;;32.99;19.42;99002.22;5071649;28;20424;-83
2021/10/19 10:52:14;;;;;;;0.40;0.40;;;;;;;32.07;19.38;99000.38;5073706;28;20543;-84
2021/10/19 10:54:56;;;;;;;0.30;0.30;;;;;;;32.38;20.45;99001.13;5042480;28;20028;-84
2021/10/19 10:57:23;;;;;;;0.50;0.40;;;;;;;32.71;18.49;99009.94;5079107;28;20040;-83
2021/10/19 10:59:56;;;;;;;0.50;0.50;;;;;;;32.49;18.48;98998.66;5075045;28;20384;-83
2021/10/19 11:02:27;;;;;;;1.38;0.50;;;;;;;32.80;18.76;98995.72;5075700;28;20078;-83
2021/10/19 11:04:55;;;;;;;1.20;0.38;;;;;;;32.72;18.71;98997.31;5067668;28;20502;-84
2021/10/19 11:07:34;;;;;;;0.40;0.40;;;;;;;33.14;18.79;98995.44;5071866;28;20103;-83
2021/10/19 11:10:18;;;;;;;0.30;0.30;;;;;;;33.49;17.38;98989.41;5065136;28;20029;-84
2021/10/19 11:12:45;;;;;;;0.90;0.60;;;;;;;33.22;17.65;98985.34;5053082;28;20033;-84
2021/10/19 11:15:18;;;;;;;0.45;0.45;;;;;;;33.16;18.07;98980.75;5060731;28;20029;-84
2021/10/19 11:17:50;;;;;;;0.50;0.50;;;;;;;33.05;18.65;98981.22;5088559;28;20031;-84
2021/10/19 11:20:21;;;;;;;0.75;0.50;;;;;;;32.96;17.71;98980.38;5087346;28;20497;-84
2021/10/19 11:22:48;;;;;;;0.47;0.40;;;;;;;33.26;17.87;98980.25;5054427;28;20029;-84
2021/10/19 11:25:15;;;;;;;0.40;0.30;;;;;;;33.92;18.12;98971.91;5077181;28;20039;-83
2021/10/19 11:27:42;;;;;;;0.60;0.50;;;;;;;33.22;17.91;98961.75;5080009;28;20036;-84
2021/10/19 11:30:10;;;;;;;0.38;0.32;;;;;;;33.50;18.47;98957.59;5067381;28;20058;-84
2021/10/19 11:32:37;;;;;;;0.30;0.30;;;;;;;33.76;17.83;98969.44;5084486;28;20491;-84
2021/10/19 11:35:05;;;;;;;0.55;0.40;;;;;;;33.76;17.57;98961.69;5087260;28;20538;-84